createdAt,value
2019-02-06T00:00:52.517Z,39.40
2019-02-06T00:03:22.756Z,35.70
2019-02-06T00:05:52.620Z,37.07
2019-02-06T00:08:22.273Z,35.37
2019-02-06T00:10:51.876Z,34.83
2019-02-06T00:13:21.531Z,36.43
2019-02-06T00:15:51.645Z,35.03
2019-02-06T00:18:21.352Z,33.33
2019-02-06T00:20:50.758Z,33.20
2019-02-06T00:23:20.099Z,30.93
2019-02-06T00:25:49.792Z,37.67
2019-02-06T00:28:19.538Z,29.27
2019-02-06T00:30:49.194Z,29.47
2019-02-06T00:33:18.886Z,28.80
2019-02-06T00:35:48.167Z,26.90
2019-02-06T00:38:18.232Z,30.87
2019-02-06T00:40:47.587Z,29.73
2019-02-06T00:43:17.617Z,34.13
2019-02-06T00:45:47.461Z,32.30
2019-02-06T00:48:17.555Z,26.73
2019-02-06T00:50:46.944Z,28.83
2019-02-06T00:53:16.951Z,27.77
2019-02-06T00:55:46.886Z,26.93
2019-02-06T00:58:16.113Z,28.23
2019-02-06T01:00:45.776Z,28.30
2019-02-06T01:03:15.753Z,31.97
2019-02-06T01:05:45.239Z,31.83
2019-02-06T01:08:14.970Z,28.60
2019-02-06T01:10:44.917Z,30.57
2019-02-06T01:13:14.505Z,32.37
2019-02-06T01:15:43.821Z,28.37
2019-02-06T01:18:13.478Z,34.00
2019-02-06T01:20:42.721Z,29.93
2019-02-06T01:23:15.882Z,31.80
2019-02-06T01:25:43.951Z,29.20
2019-02-06T01:28:14.027Z,32.20
2019-02-06T01:30:56.808Z,32.90
2019-02-06T01:33:26.142Z,33.23
2019-02-06T01:35:56.216Z,32.07
2019-02-06T01:38:25.474Z,33.73
2019-02-06T01:40:54.760Z,41.87
2019-02-06T01:43:24.698Z,33.23
2019-02-06T01:45:54.680Z,33.40
2019-02-06T01:48:23.873Z,32.80
2019-02-06T01:50:53.214Z,35.87
2019-02-06T01:53:22.489Z,33.50
2019-02-06T01:55:52.902Z,33.37
2019-02-06T01:58:22.332Z,37.80
2019-02-06T02:00:51.589Z,34.77
2019-02-06T02:03:22.094Z,34.20
2019-02-06T02:06:01.827Z,34.90
2019-02-06T02:08:24.083Z,39.03
2019-02-06T02:10:53.707Z,39.73
2019-02-06T02:13:23.541Z,35.70
2019-02-06T02:15:52.827Z,39.23
2019-02-06T02:18:22.480Z,38.27
2019-02-06T02:20:51.689Z,49.83
2019-02-06T02:23:21.772Z,43.03
2019-02-06T02:25:51.971Z,45.20
2019-02-06T02:28:27.698Z,46.83
2019-02-06T02:30:57.465Z,41.97
2019-02-06T02:33:26.740Z,39.97
2019-02-06T02:36:16.577Z,37.43
2019-02-06T02:38:46.796Z,44.00
2019-02-06T02:41:16.463Z,42.50
2019-02-06T02:43:46.394Z,45.13
2019-02-06T02:46:16.418Z,41.57
2019-02-06T02:48:46.477Z,40.63
2019-02-06T02:51:16.711Z,43.00
2019-02-06T02:53:46.614Z,44.13
2019-02-06T02:56:16.163Z,40.57
2019-02-06T02:58:45.580Z,38.27
2019-02-06T03:01:33.570Z,37.47
2019-02-06T03:04:07.857Z,42.70
2019-02-06T03:06:56.494Z,38.43
2019-02-06T03:09:26.292Z,41.67
2019-02-06T03:11:56.112Z,41.97
2019-02-06T03:14:25.554Z,42.10
2019-02-06T03:16:54.898Z,46.50
2019-02-06T03:19:24.155Z,41.87
2019-02-06T03:21:53.386Z,39.57
2019-02-06T03:24:23.054Z,45.70
2019-02-06T03:26:53.007Z,46.30
2019-02-06T03:29:22.261Z,42.17
2019-02-06T03:31:51.508Z,45.67
2019-02-06T03:34:21.439Z,42.53
2019-02-06T03:36:50.751Z,43.60
2019-02-06T03:39:19.994Z,42.90
2019-02-06T03:41:49.695Z,44.23
2019-02-06T03:44:18.926Z,43.13
2019-02-06T03:46:48.522Z,41.50
2019-02-06T03:49:17.756Z,41.17
2019-02-06T03:51:47.375Z,44.13
2019-02-06T03:54:17.322Z,39.57
2019-02-06T03:56:47.330Z,46.57
2019-02-06T03:59:17.006Z,41.93
2019-02-06T04:01:46.345Z,37.13
2019-02-06T04:04:15.876Z,40.83
2019-02-06T04:06:53.629Z,42.80
2019-02-06T04:09:16.444Z,41.63
2019-02-06T04:11:46.232Z,39.87
2019-02-06T04:14:16.128Z,47.53
2019-02-06T04:16:45.719Z,39.73
2019-02-06T04:19:15.294Z,40.57
2019-02-06T04:21:44.592Z,39.50
2019-02-06T04:24:13.951Z,43.47
2019-02-06T04:26:43.539Z,38.50
2019-02-06T04:29:12.805Z,44.57
2019-02-06T04:31:42.050Z,39.50
2019-02-06T04:34:11.671Z,42.73
2019-02-06T04:36:41.725Z,41.13
2019-02-06T04:39:10.974Z,34.47
2019-02-06T04:41:40.566Z,45.10
2019-02-06T04:44:29.127Z,41.23
2019-02-06T04:46:58.353Z,38.47
2019-02-06T04:49:27.802Z,38.03
2019-02-06T04:51:57.018Z,38.07
2019-02-06T04:54:27.150Z,41.00
2019-02-06T04:56:57.035Z,38.87
2019-02-06T04:59:26.616Z,41.33
2019-02-06T05:01:56.584Z,40.63
2019-02-06T05:04:26.198Z,36.50
2019-02-06T05:06:55.423Z,39.90
2019-02-06T05:09:24.917Z,38.87
2019-02-06T05:11:54.508Z,43.27
2019-02-06T05:14:23.913Z,40.50
2019-02-06T05:16:53.441Z,33.80
2019-02-06T05:19:22.675Z,38.07
2019-02-06T05:21:52.607Z,35.97
2019-02-06T05:24:22.046Z,41.23
2019-02-06T05:26:51.440Z,43.80
2019-02-06T05:29:21.017Z,34.23
2019-02-06T05:31:50.337Z,38.60
2019-02-06T05:34:19.983Z,30.13
2019-02-06T05:36:50.998Z,35.00
2019-02-06T05:39:20.496Z,33.60
2019-02-06T05:41:50.114Z,37.20
2019-02-06T05:44:20.295Z,31.70
2019-02-06T05:46:49.660Z,35.40
2019-02-06T05:49:38.458Z,31.43
2019-02-06T05:52:07.864Z,26.67
2019-02-06T05:54:37.480Z,31.63
2019-02-06T05:57:06.886Z,26.13
2019-02-06T05:59:36.678Z,31.07
2019-02-06T06:02:06.359Z,28.47
2019-02-06T06:04:35.958Z,25.80
2019-02-06T06:07:05.791Z,29.47
2019-02-06T06:09:35.461Z,28.07
2019-02-06T06:12:04.745Z,26.83
2019-02-06T06:14:34.859Z,27.30
2019-02-06T06:17:04.451Z,27.90
2019-02-06T06:19:33.691Z,22.77
2019-02-06T06:22:03.072Z,24.20
2019-02-06T06:24:32.325Z,25.63
2019-02-06T06:27:02.366Z,25.37
2019-02-06T06:29:50.740Z,24.87
2019-02-06T06:32:20.653Z,27.03
2019-02-06T06:34:50.111Z,24.83
2019-02-06T06:37:19.398Z,22.60
2019-02-06T06:39:48.708Z,24.87
2019-02-06T06:42:18.325Z,26.33
2019-02-06T06:44:47.923Z,21.83
2019-02-06T06:47:17.204Z,22.30
2019-02-06T06:49:46.870Z,29.20
2019-02-06T06:52:16.136Z,21.47
2019-02-06T06:54:45.793Z,19.83
2019-02-06T06:57:15.332Z,23.70
2019-02-06T06:59:44.682Z,20.57
2019-02-06T07:02:14.373Z,19.60
2019-02-06T07:04:44.033Z,20.50
2019-02-06T07:07:13.737Z,20.30
2019-02-06T07:09:43.350Z,19.37
2019-02-06T07:12:13.397Z,20.77
2019-02-06T07:14:42.995Z,22.10
2019-02-06T07:17:12.327Z,17.47
2019-02-06T07:19:42.093Z,18.40
2019-02-06T07:22:11.329Z,19.03
2019-02-06T07:24:40.941Z,18.90
2019-02-06T07:27:10.359Z,20.63
2019-02-06T07:29:39.639Z,16.90
2019-02-06T07:32:09.243Z,16.03
2019-02-06T07:34:39.301Z,17.73
2019-02-06T07:37:08.907Z,16.80
2019-02-06T07:39:38.547Z,19.13
2019-02-06T07:42:07.885Z,19.30
2019-02-06T07:44:37.279Z,19.67
2019-02-06T07:47:07.071Z,16.83
2019-02-06T07:49:36.650Z,20.97
2019-02-06T07:52:06.068Z,19.97
2019-02-06T07:54:35.643Z,17.57
2019-02-06T07:57:04.910Z,16.77
2019-02-06T07:59:34.781Z,19.50
2019-02-06T08:02:04.074Z,17.70
2019-02-06T08:04:33.774Z,14.73
2019-02-06T08:07:03.113Z,17.30
2019-02-06T08:09:32.426Z,18.67
2019-02-06T08:12:02.005Z,15.30
2019-02-06T08:14:31.360Z,15.80
2019-02-06T08:17:01.119Z,16.90
2019-02-06T08:19:31.056Z,17.80
2019-02-06T08:22:00.656Z,16.13
2019-02-06T08:24:30.085Z,15.77
2019-02-06T08:26:59.318Z,15.77
2019-02-06T08:29:28.581Z,17.60
2019-02-06T08:31:58.174Z,16.83
2019-02-06T08:34:28.391Z,15.57
2019-02-06T08:36:57.984Z,15.37
2019-02-06T08:39:28.344Z,15.50
2019-02-06T08:41:57.563Z,15.13
2019-02-06T08:44:27.186Z,17.70
2019-02-06T08:46:57.202Z,16.93
2019-02-06T08:49:26.934Z,14.63
2019-02-06T08:51:56.434Z,16.07
2019-02-06T08:54:26.410Z,14.10
2019-02-06T08:56:55.782Z,14.63
2019-02-06T08:59:25.027Z,12.23
2019-02-06T09:01:54.629Z,17.07
2019-02-06T09:04:24.357Z,12.80
2019-02-06T09:06:53.722Z,12.93
2019-02-06T09:09:23.295Z,14.40
2019-02-06T09:11:52.548Z,13.27
2019-02-06T09:14:22.482Z,12.33
2019-02-06T09:16:51.860Z,14.90
2019-02-06T09:19:21.439Z,15.03
2019-02-06T09:21:50.699Z,13.43
2019-02-06T09:24:20.715Z,14.03
2019-02-06T09:26:50.755Z,14.00
2019-02-06T09:29:20.395Z,13.60
2019-02-06T09:31:49.594Z,13.33
2019-02-06T09:34:19.220Z,15.90
2019-02-06T09:36:48.598Z,15.93
2019-02-06T09:39:17.863Z,14.63
2019-02-06T09:41:47.947Z,12.50
2019-02-06T09:44:17.586Z,11.70
2019-02-06T09:46:47.914Z,12.73
2019-02-06T09:49:17.526Z,12.10
2019-02-06T09:51:46.922Z,11.20
2019-02-06T09:54:16.114Z,11.23
2019-02-06T09:56:45.387Z,12.10
2019-02-06T09:59:14.606Z,11.83
2019-02-06T10:01:43.984Z,11.37
2019-02-06T10:04:13.633Z,12.23
2019-02-06T10:06:43.677Z,10.13
2019-02-06T10:09:22.558Z,11.60
2019-02-06T10:11:44.575Z,11.23
2019-02-06T10:14:14.137Z,10.37
2019-02-06T10:16:43.682Z,9.50
2019-02-06T10:19:13.727Z,9.47
2019-02-06T10:21:43.348Z,8.93
2019-02-06T10:24:13.058Z,10.57
2019-02-06T10:26:42.688Z,9.83
2019-02-06T10:29:31.162Z,9.47
2019-02-06T10:32:00.760Z,10.73
2019-02-06T10:34:30.345Z,9.73
2019-02-06T10:36:59.688Z,8.87
2019-02-06T10:39:34.612Z,11.07
2019-02-06T10:42:00.732Z,11.03
2019-02-06T10:44:30.441Z,11.27
2019-02-06T10:46:59.772Z,9.67
2019-02-06T10:49:29.577Z,9.47
2019-02-06T10:51:59.211Z,8.70
2019-02-06T10:54:28.573Z,8.90
2019-02-06T10:56:58.123Z,8.80
2019-02-06T10:59:28.188Z,8.40
2019-02-06T11:01:57.703Z,12.00
2019-02-06T11:04:27.472Z,8.63
2019-02-06T11:06:56.761Z,8.97
2019-02-06T11:09:26.379Z,9.67
2019-02-06T11:11:56.482Z,7.00
2019-02-06T11:14:26.732Z,8.30
2019-02-06T11:16:56.347Z,8.00
2019-02-06T11:19:25.729Z,7.63
2019-02-06T11:21:55.098Z,9.63
2019-02-06T11:24:26.738Z,8.23
2019-02-06T11:26:56.665Z,10.60
2019-02-06T11:29:26.558Z,7.23
2019-02-06T11:31:56.091Z,8.10
2019-02-06T11:34:25.368Z,7.33
2019-02-06T11:36:55.359Z,8.03
2019-02-06T11:39:24.704Z,8.63
2019-02-06T11:41:54.323Z,8.07
2019-02-06T11:44:23.934Z,9.00
2019-02-06T11:46:53.191Z,8.47
2019-02-06T11:49:28.217Z,8.50
2019-02-06T11:51:57.584Z,7.50
2019-02-06T11:54:27.185Z,7.70
2019-02-06T11:56:56.799Z,8.20
2019-02-06T11:59:26.450Z,8.50
2019-02-06T12:01:56.767Z,14.10
2019-02-06T12:04:26.160Z,8.57
2019-02-06T12:06:55.551Z,10.20
2019-02-06T12:09:24.786Z,7.47
2019-02-06T12:11:54.476Z,7.87
2019-02-06T12:14:23.994Z,8.20
2019-02-06T12:16:53.598Z,10.07
2019-02-06T12:19:23.121Z,9.60
2019-02-06T12:21:52.741Z,9.03
2019-02-06T12:24:22.488Z,11.43
2019-02-06T12:26:52.153Z,12.03
2019-02-06T12:29:21.576Z,9.93
2019-02-06T12:31:51.382Z,11.33
2019-02-06T12:34:20.832Z,10.30
2019-02-06T12:36:50.138Z,10.73
2019-02-06T12:39:22.615Z,10.90
2019-02-06T12:41:50.565Z,11.00
2019-02-06T12:44:20.390Z,13.20
2019-02-06T12:46:49.801Z,13.83
2019-02-06T12:49:19.033Z,10.97
2019-02-06T12:51:48.646Z,10.10
2019-02-06T12:54:17.873Z,9.53
2019-02-06T12:56:47.246Z,15.40
2019-02-06T12:59:16.622Z,10.07
2019-02-06T13:01:46.517Z,10.23
2019-02-06T13:04:16.551Z,8.50
2019-02-06T13:06:45.824Z,11.53
2019-02-06T13:09:15.437Z,9.00
2019-02-06T13:11:44.731Z,9.50
2019-02-06T13:14:14.250Z,8.40
2019-02-06T13:16:43.785Z,9.67
2019-02-06T13:19:13.699Z,11.00
2019-02-06T13:21:43.347Z,11.03
2019-02-06T13:24:12.627Z,9.83
2019-02-06T13:26:44.221Z,10.30
2019-02-06T13:29:13.277Z,9.43
2019-02-06T13:31:43.403Z,11.30
2019-02-06T13:34:13.090Z,8.50
2019-02-06T13:36:42.358Z,11.80
2019-02-06T13:39:12.009Z,9.87
2019-02-06T13:41:41.336Z,9.80
2019-02-06T13:44:11.595Z,9.23
2019-02-06T13:46:52.768Z,9.77
2019-02-06T13:49:12.392Z,9.87
2019-02-06T13:51:42.044Z,9.07
2019-02-06T13:54:11.366Z,8.43
2019-02-06T13:56:41.013Z,10.00
2019-02-06T13:59:11.058Z,10.30
2019-02-06T14:01:40.622Z,9.77
2019-02-06T14:04:09.916Z,10.00
2019-02-06T14:06:39.704Z,9.87
2019-02-06T14:09:22.198Z,11.40
2019-02-06T14:12:04.270Z,9.30
2019-02-06T14:14:33.539Z,9.93
2019-02-06T14:17:02.785Z,12.40
2019-02-06T14:19:32.026Z,8.83
2019-02-06T14:22:01.280Z,9.20
2019-02-06T14:25:06.982Z,9.40
2019-02-06T14:28:26.782Z,11.93
2019-02-06T14:31:39.214Z,8.30
2019-02-06T14:34:48.618Z,9.80
2019-02-06T14:38:20.425Z,8.57
2019-02-06T14:41:26.946Z,7.90
2019-02-06T14:44:16.517Z,8.00
2019-02-06T14:47:20.081Z,8.37
2019-02-06T14:50:09.441Z,7.60
2019-02-06T14:52:48.494Z,8.47
2019-02-06T14:55:56.360Z,8.40
2019-02-06T14:59:18.926Z,8.53
2019-02-06T15:02:41.757Z,10.07
2019-02-06T15:05:42.406Z,9.57
2019-02-06T15:08:37.760Z,9.80
2019-02-06T15:11:21.744Z,9.73
2019-02-06T15:14:45.908Z,8.93
2019-02-06T15:18:04.919Z,10.47
2019-02-06T15:20:56.956Z,11.67
2019-02-06T15:24:10.593Z,12.30
2019-02-06T15:27:08.531Z,13.37
2019-02-06T15:30:22.451Z,11.87
2019-02-06T15:33:13.426Z,11.57
2019-02-06T15:36:20.486Z,14.47
2019-02-06T15:39:26.906Z,12.13
2019-02-06T15:42:06.961Z,16.67
2019-02-06T15:44:47.051Z,14.53
2019-02-06T15:47:51.153Z,15.20
2019-02-06T15:50:57.926Z,19.40
2019-02-06T15:54:13.473Z,14.33
2019-02-06T15:57:11.323Z,17.20
2019-02-06T16:00:24.432Z,15.50
2019-02-06T16:03:56.900Z,20.77
2019-02-06T16:06:55.586Z,18.37
2019-02-06T16:10:14.338Z,21.90
2019-02-06T16:13:09.598Z,16.87
2019-02-06T16:16:06.636Z,16.97
2019-02-06T16:19:22.414Z,16.53
2019-02-06T16:22:24.558Z,19.60
2019-02-06T16:25:07.616Z,20.03
2019-02-06T16:28:15.664Z,18.17
2019-02-06T16:31:36.080Z,20.70
2019-02-06T16:35:11.075Z,26.30
2019-02-06T16:38:23.472Z,18.63
2019-02-06T16:41:12.225Z,21.47
2019-02-06T16:44:35.218Z,18.10
2019-02-06T16:47:47.914Z,26.53
2019-02-06T16:50:42.871Z,21.83
2019-02-06T16:54:08.491Z,23.10
2019-02-06T16:57:14.139Z,22.37
2019-02-06T17:00:30.060Z,20.27
2019-02-06T17:03:37.324Z,24.50
2019-02-06T17:06:38.118Z,21.90
2019-02-06T17:09:54.182Z,24.40
2019-02-06T17:12:42.298Z,22.60
2019-02-06T17:15:49.066Z,26.30
2019-02-06T17:18:49.236Z,27.63
2019-02-06T17:22:00.438Z,27.03
2019-02-06T17:25:02.608Z,26.63
2019-02-06T17:28:07.450Z,28.63
2019-02-06T17:31:16.755Z,28.37
2019-02-06T17:34:21.076Z,26.33
2019-02-06T17:37:22.278Z,28.67
2019-02-06T17:40:09.661Z,28.67
2019-02-06T17:43:15.916Z,30.50
2019-02-06T17:46:08.218Z,25.80
2019-02-06T17:49:04.466Z,33.40
2019-02-06T17:52:20.183Z,31.43
2019-02-06T17:55:22.213Z,30.43
2019-02-06T17:57:56.300Z,30.73
2019-02-06T18:00:32.601Z,33.97
2019-02-06T18:03:04.006Z,30.77
2019-02-06T18:05:33.751Z,29.40
2019-02-06T18:08:04.120Z,25.70
2019-02-06T18:10:34.190Z,30.60
2019-02-06T18:13:03.487Z,30.77
2019-02-06T18:15:32.700Z,36.37
2019-02-06T18:18:03.239Z,29.17
2019-02-06T18:20:32.831Z,31.00
2019-02-06T18:23:02.791Z,33.97
2019-02-06T18:25:32.514Z,34.77
2019-02-06T18:28:02.587Z,36.67
2019-02-06T18:30:32.436Z,39.07
2019-02-06T18:33:01.785Z,38.53
2019-02-06T18:35:31.189Z,37.40
2019-02-06T18:38:01.265Z,35.20
2019-02-06T18:40:31.105Z,39.67
2019-02-06T18:43:01.002Z,36.67
2019-02-06T18:45:31.168Z,40.30
2019-02-06T18:48:01.902Z,33.40
2019-02-06T18:50:31.654Z,36.37
2019-02-06T18:53:01.430Z,33.30
2019-02-06T18:55:30.655Z,35.20
2019-02-06T18:58:00.689Z,40.23
2019-02-06T19:00:32.484Z,29.87
2019-02-06T19:03:02.847Z,34.27
2019-02-06T19:05:34.685Z,38.67
2019-02-06T19:08:04.628Z,38.50
2019-02-06T19:10:34.408Z,36.20
2019-02-06T19:13:03.987Z,33.83
2019-02-06T19:15:34.263Z,36.23
2019-02-06T19:18:03.978Z,37.23
2019-02-06T19:20:35.696Z,32.73
2019-02-06T19:23:04.808Z,32.03
2019-02-06T19:25:35.148Z,36.00
2019-02-06T19:28:04.918Z,36.70
2019-02-06T19:30:36.626Z,33.50
2019-02-06T19:34:01.057Z,35.53
2019-02-06T19:36:30.768Z,40.20
2019-02-06T19:39:00.016Z,36.63
2019-02-06T19:41:29.567Z,37.20
2019-02-06T19:43:59.317Z,40.53
2019-02-06T19:46:28.589Z,38.87
2019-02-06T19:48:58.260Z,38.03
2019-02-06T19:51:27.927Z,37.57
2019-02-06T19:53:57.169Z,39.37
2019-02-06T19:56:26.444Z,38.87
2019-02-06T19:58:56.179Z,38.83
2019-02-06T20:01:25.824Z,39.70
2019-02-06T20:03:55.433Z,39.07
2019-02-06T20:06:32.267Z,37.13
2019-02-06T20:09:11.759Z,38.83
2019-02-06T20:11:41.570Z,44.93
2019-02-06T20:14:11.867Z,41.47
2019-02-06T20:16:41.219Z,47.00
2019-02-06T20:19:10.884Z,39.70
2019-02-06T20:21:40.911Z,45.17
2019-02-06T20:24:10.655Z,44.93
2019-02-06T20:26:40.076Z,42.10
2019-02-06T20:29:09.673Z,48.93
2019-02-06T20:31:39.879Z,43.57
2019-02-06T20:34:09.411Z,43.97
2019-02-06T20:36:38.981Z,47.00
2019-02-06T20:39:09.993Z,42.17
2019-02-06T20:41:39.680Z,48.67
2019-02-06T20:44:09.330Z,44.80
2019-02-06T20:46:39.026Z,47.57
2019-02-06T20:49:08.326Z,45.13
2019-02-06T20:51:37.862Z,46.10
2019-02-06T20:54:08.448Z,51.43
2019-02-06T20:56:37.706Z,46.27
2019-02-06T20:59:07.433Z,50.60
2019-02-06T21:01:37.063Z,51.93
2019-02-06T21:04:06.660Z,47.83
2019-02-06T21:06:36.282Z,50.00
2019-02-06T21:09:11.008Z,50.43
2019-02-06T21:11:40.693Z,51.43
2019-02-06T21:14:09.924Z,54.77
2019-02-06T21:16:39.563Z,52.07
2019-02-06T21:19:08.847Z,53.00
2019-02-06T21:21:38.219Z,48.37
2019-02-06T21:24:08.271Z,51.60
2019-02-06T21:26:37.910Z,52.73
2019-02-06T21:29:07.443Z,55.43
2019-02-06T21:31:36.659Z,56.27
2019-02-06T21:34:06.714Z,46.73
2019-02-06T21:36:36.282Z,49.43
2019-02-06T21:39:09.490Z,52.23
2019-02-06T21:41:39.659Z,49.67
2019-02-06T21:44:08.934Z,55.53
2019-02-06T21:46:38.487Z,42.53
2019-02-06T21:49:08.088Z,52.90
2019-02-06T21:51:37.485Z,53.10
2019-02-06T21:54:07.130Z,53.30
2019-02-06T21:56:36.488Z,48.30
2019-02-06T21:59:05.708Z,58.23
2019-02-06T22:01:35.107Z,49.23
2019-02-06T22:04:05.182Z,56.57
2019-02-06T22:06:34.544Z,57.27
2019-02-06T22:09:04.918Z,56.97
2019-02-06T22:11:34.597Z,57.83
2019-02-06T22:14:03.939Z,55.83
2019-02-06T22:16:33.842Z,54.60
2019-02-06T22:19:03.068Z,57.63
2019-02-06T22:21:32.678Z,56.47
2019-02-06T22:24:03.371Z,52.30
2019-02-06T22:26:33.015Z,57.50
2019-02-06T22:29:03.270Z,51.83
2019-02-06T22:31:32.878Z,53.90
2019-02-06T22:34:02.309Z,52.97
2019-02-06T22:36:31.926Z,51.50
2019-02-06T22:39:01.695Z,55.80
2019-02-06T22:41:31.074Z,59.20
2019-02-06T22:44:06.598Z,57.53
2019-02-06T22:46:32.431Z,55.63
2019-02-06T22:49:02.337Z,45.13
2019-02-06T22:51:32.127Z,50.43
2019-02-06T22:54:01.741Z,50.77
2019-02-06T22:56:31.136Z,51.50
2019-02-06T22:59:01.177Z,52.00
2019-02-06T23:01:45.603Z,55.93
2019-02-06T23:04:14.957Z,45.13
2019-02-06T23:06:44.590Z,51.07
2019-02-06T23:09:13.982Z,52.30
2019-02-06T23:11:43.429Z,51.53
2019-02-06T23:14:17.740Z,52.80
2019-02-06T23:16:44.664Z,48.10
2019-02-06T23:19:14.380Z,51.37
2019-02-06T23:21:44.010Z,52.47
2019-02-06T23:24:13.362Z,51.97
2019-02-06T23:26:42.731Z,45.30
2019-02-06T23:29:12.098Z,52.00
2019-02-06T23:31:41.441Z,45.67
2019-02-06T23:34:11.145Z,39.90
2019-02-06T23:36:41.056Z,39.80
2019-02-06T23:39:18.368Z,34.40
2019-02-06T23:41:48.024Z,38.47
2019-02-06T23:44:28.343Z,38.23
2019-02-06T23:46:48.841Z,38.73
2019-02-06T23:49:18.463Z,40.83
2019-02-06T23:52:07.550Z,40.33
2019-02-06T23:54:37.373Z,35.30
2019-02-06T23:57:07.338Z,42.43
2019-02-06T23:59:36.729Z,30.83
